Time;durP1;ratioP1;P1;durP2;ratioP2;P2;SDS_P1;SDS_P2;PMS_P1;PMS_P2;Temp;Humidity;BMP_temperature;BMP_pressure;BME280_temperature;BME280_humidity;BME280_pressure;Samples;Min_cycle;Max_cycle;Signal;HPM_P1;HPM_P2
2022/08/24 00:00:19;;;;;;;2.40;1.10;;;19.90;99.90;;;;;;5072183;28;38305;-75
2022/08/24 00:02:46;;;;;;;2.08;1.17;;;19.90;99.90;;;;;;5079265;27;38182;-75
2022/08/24 00:05:13;;;;;;;1.10;1.00;;;19.90;99.90;;;;;;5077163;28;37544;-74
2022/08/24 00:07:39;;;;;;;1.95;1.00;;;19.80;99.90;;;;;;5059248;28;39556;-75
2022/08/24 00:10:08;;;;;;;1.08;1.00;;;19.90;99.90;;;;;;5079166;28;39538;-74
2022/08/24 00:12:34;;;;;;;2.75;1.10;;;19.80;99.90;;;;;;5077596;27;38671;-74
2022/08/24 00:15:03;;;;;;;2.45;1.23;;;19.80;99.90;;;;;;5064126;28;38075;-74
2022/08/24 00:17:30;;;;;;;1.13;1.02;;;19.80;99.90;;;;;;5053765;28;46447;-74
2022/08/24 00:19:56;;;;;;;1.55;1.23;;;19.80;99.90;;;;;;5059708;28;38887;-73
2022/08/24 00:22:22;;;;;;;1.63;0.85;;;19.80;99.90;;;;;;5073282;28;37714;-74
2022/08/24 00:24:48;;;;;;;1.33;1.00;;;19.80;99.90;;;;;;5077822;28;38841;-74
2022/08/24 00:27:14;;;;;;;2.03;0.98;;;19.80;99.90;;;;;;5081173;27;39013;-74
2022/08/24 00:29:41;;;;;;;1.05;1.00;;;19.80;99.90;;;;;;5053230;28;38815;-74
2022/08/24 00:32:07;;;;;;;1.30;1.20;;;19.80;99.90;;;;;;5063770;28;36897;-74
2022/08/24 00:34:34;;;;;;;1.40;0.85;;;19.70;99.90;;;;;;5057660;28;38945;-75
2022/08/24 00:37:00;;;;;;;2.83;1.17;;;19.70;99.90;;;;;;5040666;28;38006;-74
2022/08/24 00:39:26;;;;;;;2.60;1.73;;;19.70;99.90;;;;;;5071725;28;38126;-74
2022/08/24 00:41:53;;;;;;;1.77;1.00;;;19.70;99.90;;;;;;5058770;28;38744;-74
2022/08/24 00:44:20;;;;;;;1.02;0.98;;;19.70;99.90;;;;;;5056935;28;38793;-73
2022/08/24 00:46:57;;;;;;;1.25;1.15;;;19.70;99.90;;;;;;5057131;28;38840;-73
2022/08/24 00:49:32;;;;;;;1.98;1.10;;;19.60;99.90;;;;;;5074244;27;40704;-74
2022/08/24 00:52:04;;;;;;;1.33;1.05;;;19.60;99.90;;;;;;5075978;28;36277;-74
2022/08/24 00:54:35;;;;;;;2.35;1.30;;;19.60;99.90;;;;;;5069006;28;50038;-74
2022/08/24 00:57:05;;;;;;;1.55;1.17;;;19.60;99.90;;;;;;5071411;27;38183;-74
2022/08/24 00:59:35;;;;;;;1.25;1.00;;;19.60;99.90;;;;;;5071975;28;38967;-74
2022/08/24 01:02:08;;;;;;;1.38;0.93;;;19.50;99.90;;;;;;5036743;28;38524;-74
2022/08/24 01:04:41;;;;;;;1.20;1.10;;;19.50;99.90;;;;;;5054794;28;38279;-74
2022/08/24 01:07:07;;;;;;;1.17;1.08;;;19.50;99.90;;;;;;5035384;28;39429;-74
2022/08/24 01:09:34;;;;;;;1.20;1.10;;;19.50;99.90;;;;;;5045721;28;37161;-74
2022/08/24 01:12:00;;;;;;;2.28;1.27;;;19.50;99.90;;;;;;5058081;28;38265;-74
2022/08/24 01:14:26;;;;;;;1.00;0.90;;;19.40;99.90;;;;;;5070778;27;37996;-74
2022/08/24 01:19:43;;;;;;;1.25;1.17;;;19.40;99.90;;;;;;5058753;28;49320;-73
2022/08/24 01:22:27;;;;;;;1.83;1.20;;;19.50;99.90;;;;;;5037737;28;39613;-74
2022/08/24 01:24:54;;;;;;;0.90;0.90;;;19.50;99.90;;;;;;5067903;28;36555;-73
2022/08/24 01:27:21;;;;;;;3.20;1.35;;;19.50;99.90;;;;;;5075402;27;39838;-73
2022/08/24 01:29:48;;;;;;;2.72;1.65;;;19.60;99.90;;;;;;5074306;28;38259;-73
2022/08/24 01:32:23;;;;;;;1.23;1.00;;;19.60;99.90;;;;;;5075466;28;38706;-73
2022/08/24 01:34:49;;;;;;;1.00;1.00;;;19.60;99.90;;;;;;5050345;28;37886;-74
2022/08/24 01:37:15;;;;;;;1.65;1.25;;;19.70;99.90;;;;;;5074409;28;41549;-74
2022/08/24 01:39:44;;;;;;;1.10;1.00;;;19.70;99.90;;;;;;5059380;28;41232;-74
2022/08/24 01:42:13;;;;;;;1.25;1.02;;;19.70;99.90;;;;;;5075790;27;37574;-73
2022/08/24 01:44:41;;;;;;;1.10;1.00;;;19.80;99.90;;;;;;5069773;28;36902;-74
2022/08/24 01:47:10;;;;;;;2.17;1.23;;;19.80;99.90;;;;;;5068631;27;38041;-74
2022/08/24 01:49:40;;;;;;;2.17;1.35;;;19.90;99.90;;;;;;5071401;28;41479;-74
2022/08/24 01:52:09;;;;;;;2.50;1.58;;;19.90;99.90;;;;;;5047907;28;38670;-73
2022/08/24 01:54:35;;;;;;;1.30;1.20;;;19.90;99.90;;;;;;5048833;28;37941;-74
2022/08/24 01:57:02;;;;;;;3.22;1.75;;;20.00;99.90;;;;;;5034917;28;40538;-74
2022/08/24 01:59:28;;;;;;;2.42;1.77;;;20.00;99.90;;;;;;5056822;28;48740;-74
2022/08/24 02:01:59;;;;;;;2.00;1.70;;;20.00;99.90;;;;;;5055480;28;38363;-74
2022/08/24 02:04:26;;;;;;;2.63;1.70;;;20.10;99.90;;;;;;5052419;28;37707;-74
2022/08/24 02:06:53;;;;;;;1.40;1.30;;;20.10;99.90;;;;;;5056192;28;38328;-74
2022/08/24 02:09:19;;;;;;;3.78;1.52;;;20.00;99.90;;;;;;5048162;28;38867;-75
2022/08/24 02:11:47;;;;;;;2.00;1.45;;;20.00;99.90;;;;;;5057189;28;38084;-74
2022/08/24 02:14:13;;;;;;;2.05;1.90;;;20.00;99.90;;;;;;5055111;28;36954;-74
2022/08/24 02:16:39;;;;;;;4.38;1.67;;;19.90;99.90;;;;;;5035447;28;38174;-74
2022/08/24 02:19:05;;;;;;;1.85;1.58;;;19.90;99.90;;;;;;5044896;28;39956;-74
2022/08/24 02:21:31;;;;;;;1.50;1.40;;;19.80;99.90;;;;;;5049596;28;39041;-74
2022/08/24 02:23:58;;;;;;;2.28;1.90;;;19.80;99.90;;;;;;5031603;28;38644;-74
2022/08/24 02:26:24;;;;;;;2.90;1.42;;;19.80;99.90;;;;;;5032818;28;39741;-74
2022/08/24 02:28:51;;;;;;;2.95;2.08;;;19.80;99.90;;;;;;5047454;28;39278;-73
2022/08/24 02:31:17;;;;;;;2.47;1.98;;;19.70;99.90;;;;;;5045200;28;38291;-74
2022/08/24 02:33:43;;;;;;;3.28;2.33;;;19.70;99.90;;;;;;5055452;28;37354;-74
2022/08/24 02:36:10;;;;;;;2.50;2.30;;;19.70;99.90;;;;;;5052277;28;41772;-75
2022/08/24 02:38:37;;;;;;;3.72;1.83;;;19.70;99.90;;;;;;5034321;28;38555;-74
2022/08/24 02:41:04;;;;;;;2.42;1.55;;;19.70;99.90;;;;;;5035653;28;37800;-74
2022/08/24 02:43:32;;;;;;;1.80;1.60;;;19.60;99.90;;;;;;5051093;28;37871;-74
2022/08/24 02:45:58;;;;;;;1.92;1.55;;;19.60;99.90;;;;;;5033750;28;39512;-74
2022/08/24 02:48:24;;;;;;;1.67;1.42;;;19.60;99.90;;;;;;5030786;28;39039;-74
2022/08/24 02:50:52;;;;;;;2.47;1.63;;;19.60;99.90;;;;;;5051886;28;38011;-73
2022/08/24 02:53:20;;;;;;;1.70;1.60;;;19.60;99.90;;;;;;5047065;28;36998;-74
2022/08/24 02:55:47;;;;;;;3.00;2.70;;;19.50;99.90;;;;;;5028208;28;38836;-74
2022/08/24 02:58:15;;;;;;;2.42;2.20;;;19.50;99.90;;;;;;5049568;28;38468;-73
2022/08/24 03:00:43;;;;;;;2.55;2.35;;;19.50;99.90;;;;;;5041698;28;35456;-74
2022/08/24 03:03:10;;;;;;;2.97;2.38;;;19.50;99.90;;;;;;5070381;27;37386;-74
2022/08/24 03:05:36;;;;;;;3.92;2.65;;;19.50;99.90;;;;;;5037181;28;38433;-74
2022/08/24 03:08:03;;;;;;;3.00;2.67;;;19.50;99.90;;;;;;5053663;28;38259;-74
2022/08/24 03:10:29;;;;;;;5.20;2.90;;;19.40;99.90;;;;;;5068146;28;48325;-73
2022/08/24 03:12:57;;;;;;;3.58;2.63;;;19.40;99.90;;;;;;5041678;28;38285;-74
2022/08/24 03:15:24;;;;;;;2.90;2.70;;;19.40;99.90;;;;;;5052008;28;38901;-74
2022/08/24 03:17:50;;;;;;;2.75;2.53;;;19.40;99.90;;;;;;5055103;28;39293;-74
2022/08/24 03:20:19;;;;;;;3.70;2.72;;;19.30;99.90;;;;;;5055096;28;37709;-73
2022/08/24 03:22:46;;;;;;;4.57;2.20;;;19.30;99.90;;;;;;5028392;28;34662;-74
2022/08/24 03:25:15;;;;;;;2.92;2.65;;;19.30;99.90;;;;;;5033732;28;39653;-73
2022/08/24 03:27:42;;;;;;;2.40;2.20;;;19.30;99.90;;;;;;5035652;28;38376;-74
2022/08/24 03:30:11;;;;;;;3.67;2.55;;;19.30;99.90;;;;;;5052944;28;38431;-74
2022/08/24 03:32:38;;;;;;;3.20;2.90;;;19.20;99.90;;;;;;5035097;28;37954;-74
2022/08/24 03:35:05;;;;;;;4.00;2.78;;;19.20;99.90;;;;;;5040340;28;39690;-73
2022/08/24 03:37:31;;;;;;;4.00;2.85;;;19.20;99.90;;;;;;5057806;28;37604;-75
2022/08/24 03:39:58;;;;;;;4.18;3.63;;;19.20;99.90;;;;;;5036822;28;39516;-74
2022/08/24 03:42:24;;;;;;;4.72;3.60;;;19.10;99.90;;;;;;5057918;28;38118;-74
2022/08/24 03:44:50;;;;;;;5.60;3.42;;;19.20;99.90;;;;;;5041093;28;39055;-74
2022/08/24 03:47:19;;;;;;;3.97;3.28;;;19.20;99.90;;;;;;5060032;28;38989;-74
2022/08/24 03:49:45;;;;;;;4.55;3.40;;;19.20;99.90;;;;;;5046613;28;38656;-73
2022/08/24 03:52:11;;;;;;;4.80;3.50;;;19.10;99.90;;;;;;5077957;28;37363;-73
2022/08/24 03:54:37;;;;;;;3.25;2.95;;;19.10;99.90;;;;;;5074459;28;37506;-73
2022/08/24 03:57:04;;;;;;;3.17;2.97;;;19.10;99.90;;;;;;5058656;27;38415;-73
2022/08/24 03:59:30;;;;;;;3.50;3.20;;;19.10;99.90;;;;;;5053714;28;39037;-72
2022/08/24 04:01:56;;;;;;;4.20;3.20;;;19.10;99.90;;;;;;5056861;28;37987;-73
2022/08/24 04:04:23;;;;;;;3.17;2.90;;;19.10;99.90;;;;;;5058871;28;39629;-73
2022/08/24 04:06:49;;;;;;;3.13;2.83;;;19.00;99.90;;;;;;5048861;28;38894;-74
2022/08/24 04:09:16;;;;;;;4.55;2.95;;;19.00;99.90;;;;;;5037443;28;37856;-73
2022/08/24 04:11:44;;;;;;;4.05;3.40;;;19.00;99.90;;;;;;5071152;28;37365;-73
2022/08/24 04:14:11;;;;;;;3.13;2.85;;;19.00;99.90;;;;;;5058582;27;40747;-73
2022/08/24 04:16:37;;;;;;;4.20;3.40;;;19.00;99.90;;;;;;5062167;28;37875;-73
2022/08/24 04:19:03;;;;;;;3.20;2.90;;;19.00;99.90;;;;;;5069163;28;38217;-73
2022/08/24 04:21:34;;;;;;;2.88;2.67;;;19.00;99.90;;;;;;5070019;28;38207;-74
2022/08/24 04:24:01;;;;;;;4.05;2.97;;;19.00;99.90;;;;;;5050978;28;38780;-74
2022/08/24 04:26:29;;;;;;;3.83;3.03;;;19.00;99.90;;;;;;5066529;28;48863;-75
2022/08/24 04:28:56;;;;;;;3.58;3.15;;;19.00;99.90;;;;;;5057748;27;38889;-73
2022/08/24 04:31:22;;;;;;;3.95;3.53;;;18.90;99.90;;;;;;5031159;28;38872;-73
2022/08/24 04:33:49;;;;;;;3.97;3.30;;;19.00;99.90;;;;;;5047137;28;39611;-73
2022/08/24 04:36:18;;;;;;;3.92;3.50;;;19.00;99.90;;;;;;5035070;28;40153;-73
2022/08/24 04:38:45;;;;;;;4.25;3.30;;;18.90;99.90;;;;;;5033874;28;39508;-74
2022/08/24 04:41:13;;;;;;;3.88;3.45;;;18.90;99.90;;;;;;5050761;28;37656;-74
2022/08/24 04:43:44;;;;;;;4.18;3.30;;;18.90;99.90;;;;;;5048140;28;40384;-74
2022/08/24 04:46:16;;;;;;;5.10;4.38;;;18.90;99.90;;;;;;5050555;28;40504;-74
2022/08/24 04:48:44;;;;;;;4.45;2.95;;;18.90;99.90;;;;;;5033852;28;38377;-74
2022/08/24 04:51:12;;;;;;;5.15;3.75;;;18.90;99.90;;;;;;5071487;28;37247;-74
2022/08/24 04:53:39;;;;;;;3.33;3.03;;;18.90;99.90;;;;;;5050855;28;39822;-73
2022/08/24 04:56:12;;;;;;;4.35;2.97;;;18.90;99.90;;;;;;5074566;28;36746;-75
2022/08/24 04:58:38;;;;;;;4.80;3.40;;;18.90;99.90;;;;;;5073475;28;38197;-73
2022/08/24 05:01:08;;;;;;;4.45;3.95;;;18.90;99.90;;;;;;5054278;28;37065;-74
2022/08/24 05:03:35;;;;;;;3.63;3.33;;;18.90;99.90;;;;;;5052980;28;37893;-74
2022/08/24 05:06:01;;;;;;;3.63;3.30;;;18.90;99.90;;;;;;5050544;28;37256;-74
2022/08/24 05:08:27;;;;;;;3.53;3.22;;;19.00;99.90;;;;;;5072201;28;38689;-74
2022/08/24 05:10:54;;;;;;;4.20;3.80;;;18.90;99.90;;;;;;5075061;28;37417;-74
2022/08/24 05:13:20;;;;;;;5.30;3.67;;;19.00;99.90;;;;;;5072948;28;38266;-74
2022/08/24 05:15:47;;;;;;;3.42;3.10;;;18.90;99.90;;;;;;5069987;28;38216;-74
2022/08/24 05:18:15;;;;;;;5.32;3.53;;;18.90;99.90;;;;;;5061862;28;38295;-74
2022/08/24 05:20:44;;;;;;;4.57;3.90;;;18.90;99.90;;;;;;5057461;28;37878;-74
2022/08/24 05:23:10;;;;;;;4.82;4.10;;;18.90;99.90;;;;;;5054226;28;39771;-74
2022/08/24 05:25:38;;;;;;;4.53;4.13;;;18.90;99.90;;;;;;5078071;28;38126;-75
2022/08/24 05:28:04;;;;;;;4.57;4.10;;;19.00;99.90;;;;;;5054098;28;37140;-74
2022/08/24 05:30:31;;;;;;;4.50;4.10;;;19.10;99.90;;;;;;5073834;28;36047;-74
2022/08/24 05:32:57;;;;;;;4.75;3.63;;;19.10;99.90;;;;;;5053091;28;38774;-74
2022/08/24 05:35:23;;;;;;;3.60;3.30;;;19.10;99.90;;;;;;5026459;28;40763;-74
2022/08/24 05:37:50;;;;;;;4.38;3.50;;;19.20;99.90;;;;;;5043075;28;38107;-74
2022/08/24 05:40:18;;;;;;;6.43;4.45;;;19.10;99.90;;;;;;5070745;28;37054;-74
2022/08/24 05:42:44;;;;;;;6.50;4.35;;;19.20;99.90;;;;;;5068332;28;37823;-74
2022/08/24 05:45:11;;;;;;;4.90;4.18;;;19.30;99.90;;;;;;5072271;28;36142;-74
2022/08/24 05:47:38;;;;;;;5.35;4.72;;;19.30;99.90;;;;;;5053943;28;38885;-74
2022/08/24 05:50:05;;;;;;;7.07;4.70;;;19.40;99.90;;;;;;5077024;28;37201;-74
2022/08/24 05:52:33;;;;;;;6.57;4.75;;;19.40;99.90;;;;;;5054144;28;38063;-74
2022/08/24 05:55:00;;;;;;;8.77;5.78;;;19.50;99.90;;;;;;5072461;27;39154;-76
2022/08/24 05:57:31;;;;;;;11.05;6.28;;;19.50;99.90;;;;;;5056658;28;37162;-74
2022/08/24 05:59:57;;;;;;;10.00;6.10;;;19.60;99.90;;;;;;5056226;28;36327;-74
2022/08/24 06:02:23;;;;;;;9.85;5.82;;;19.70;99.90;;;;;;5071597;28;38925;-75
2022/08/24 06:04:50;;;;;;;10.82;5.40;;;19.70;99.90;;;;;;5051898;28;38361;-74
2022/08/24 06:07:17;;;;;;;5.15;4.65;;;19.80;99.90;;;;;;5074446;28;37930;-75
2022/08/24 06:09:43;;;;;;;6.55;5.38;;;19.80;99.90;;;;;;5056137;28;38031;-74
2022/08/24 06:12:10;;;;;;;5.63;5.05;;;19.90;99.90;;;;;;5045909;28;39992;-74
2022/08/24 06:14:37;;;;;;;7.45;5.82;;;20.00;99.90;;;;;;5050215;28;39250;-75
2022/08/24 06:17:06;;;;;;;8.15;6.05;;;20.10;99.90;;;;;;5052950;28;37197;-75
2022/08/24 06:19:34;;;;;;;7.15;5.15;;;20.20;99.90;;;;;;5051620;28;20091;-74
2022/08/24 06:22:00;;;;;;;7.97;6.20;;;20.30;99.90;;;;;;5054606;28;38145;-74
2022/08/24 06:27:20;;;;;;;7.30;5.47;;;20.50;99.90;;;;;;5048870;28;38534;-75
2022/08/24 06:29:47;;;;;;;5.95;5.35;;;20.70;99.90;;;;;;5053622;28;36877;-75
2022/08/24 06:32:14;;;;;;;7.75;5.00;;;20.80;99.90;;;;;;5050208;28;40751;-75
2022/08/24 06:34:40;;;;;;;5.72;4.65;;;20.90;99.90;;;;;;5054504;28;38148;-75
2022/08/24 06:37:06;;;;;;;6.70;4.53;;;21.00;99.90;;;;;;5052761;28;39361;-75
2022/08/24 06:39:32;;;;;;;5.65;4.65;;;21.10;99.90;;;;;;5051461;28;37887;-75
2022/08/24 06:41:58;;;;;;;4.30;3.88;;;21.10;99.90;;;;;;5051359;28;38634;-75
2022/08/24 06:44:24;;;;;;;6.07;4.45;;;21.10;99.90;;;;;;5050077;28;38409;-74
2022/08/24 06:46:51;;;;;;;5.95;3.90;;;21.20;99.90;;;;;;5054893;28;38768;-75
2022/08/24 06:49:17;;;;;;;6.75;4.95;;;21.20;99.90;;;;;;5056453;28;36869;-75
2022/08/24 06:51:44;;;;;;;7.20;4.72;;;21.20;99.90;;;;;;5059422;28;37563;-74
2022/08/24 06:54:11;;;;;;;5.78;4.68;;;21.30;99.90;;;;;;5077193;28;38238;-75
2022/08/24 06:56:37;;;;;;;6.00;4.25;;;21.50;99.90;;;;;;5075488;28;36519;-78
2022/08/24 06:59:04;;;;;;;7.05;4.93;;;21.50;99.90;;;;;;5078209;28;36613;-76
2022/08/24 07:01:31;;;;;;;6.15;5.05;;;21.60;99.90;;;;;;5074103;28;38706;-77
2022/08/24 07:03:57;;;;;;;6.32;4.60;;;21.70;99.90;;;;;;5062931;28;39260;-76
2022/08/24 07:06:24;;;;;;;5.82;4.82;;;21.80;99.90;;;;;;5066649;28;37100;-77
2022/08/24 07:08:50;;;;;;;6.82;5.13;;;21.90;99.90;;;;;;5086267;27;38518;-76
2022/08/24 07:11:18;;;;;;;8.30;5.43;;;22.00;99.90;;;;;;5066303;28;40866;-77
2022/08/24 07:13:46;;;;;;;7.32;5.38;;;22.00;99.90;;;;;;5085772;27;39493;-77
2022/08/24 07:16:13;;;;;;;7.20;5.15;;;22.20;99.90;;;;;;5065029;28;39716;-76
2022/08/24 07:18:40;;;;;;;7.30;6.00;;;22.40;99.90;;;;;;5080014;28;37186;-76
2022/08/24 07:21:06;;;;;;;7.47;5.75;;;22.50;99.90;;;;;;5058327;28;40626;-76
2022/08/24 07:23:33;;;;;;;8.35;5.90;;;22.80;99.90;;;;;;5086124;27;38005;-78
2022/08/24 07:26:12;;;;;;;6.85;5.15;;;23.20;99.90;;;;;;5066851;28;38802;-78
2022/08/24 07:28:39;;;;;;;5.50;4.80;;;23.40;99.90;;;;;;5066946;28;47024;-78
2022/08/24 07:31:06;;;;;;;5.68;4.95;;;23.50;99.90;;;;;;5082214;28;38587;-78
2022/08/24 07:33:32;;;;;;;6.05;4.40;;;23.60;99.90;;;;;;5067564;28;39397;-77
2022/08/24 07:35:58;;;;;;;6.18;4.57;;;24.00;99.90;;;;;;5068172;28;38683;-78
2022/08/24 07:38:25;;;;;;;7.00;3.83;;;24.30;99.90;;;;;;5079320;27;38433;-78
2022/08/24 07:40:52;;;;;;;5.32;3.30;;;24.30;99.90;;;;;;5080114;28;38705;-78
2022/08/24 07:43:19;;;;;;;4.50;3.38;;;24.50;99.90;;;;;;5079593;28;38317;-78
2022/08/24 07:45:50;;;;;;;5.60;3.13;;;24.50;99.90;;;;;;5063643;28;39591;-79
2022/08/24 07:48:17;;;;;;;7.70;4.05;;;24.70;99.90;;;;;;5068034;28;38726;-77
2022/08/24 07:50:43;;;;;;;3.92;3.40;;;24.50;99.90;;;;;;5083117;28;39608;-77
2022/08/24 07:53:10;;;;;;;3.75;3.05;;;24.40;99.90;;;;;;5064564;28;39206;-77
2022/08/24 07:55:36;;;;;;;5.68;3.45;;;24.70;99.90;;;;;;5080991;27;37650;-77
2022/08/24 07:58:02;;;;;;;6.80;3.55;;;24.90;99.90;;;;;;5080233;27;37267;-77
2022/08/24 08:00:28;;;;;;;3.85;3.40;;;24.60;99.90;;;;;;5078384;28;39828;-78
2022/08/24 08:02:55;;;;;;;7.28;4.30;;;24.70;99.90;;;;;;5083157;27;38351;-78
2022/08/24 08:05:23;;;;;;;4.68;2.83;;;24.60;99.90;;;;;;5081918;28;39153;-78
2022/08/24 08:07:50;;;;;;;3.70;3.35;;;25.00;99.90;;;;;;5063883;28;37638;-79
2022/08/24 08:10:16;;;;;;;5.53;3.40;;;25.50;99.90;;;;;;5064077;28;40048;-78
2022/08/24 08:12:42;;;;;;;3.45;3.03;;;25.70;99.90;;;;;;5083420;27;38093;-78
2022/08/24 08:15:09;;;;;;;4.07;2.75;;;25.90;99.90;;;;;;5063707;28;38862;-76
2022/08/24 08:17:37;;;;;;;5.32;2.97;;;26.10;99.90;;;;;;5083445;27;37758;-76
2022/08/24 08:20:05;;;;;;;3.53;2.80;;;26.40;99.90;;;;;;5071368;28;37418;-79
2022/08/24 08:25:18;;;;;;;3.65;2.88;;;26.60;99.90;;;;;;5083884;27;38977;-77
2022/08/24 08:27:45;;;;;;;3.78;2.58;;;26.70;99.90;;;;;;5067217;28;39954;-77
2022/08/24 08:30:14;;;;;;;2.40;2.20;;;26.70;99.90;;;;;;5081333;28;38825;-77
2022/08/24 08:32:40;;;;;;;4.68;2.60;;;26.70;99.90;;;;;;5074756;28;38608;-77
2022/08/24 08:35:07;;;;;;;3.22;2.30;;;26.60;99.90;;;;;;5081282;28;37068;-77
2022/08/24 08:37:33;;;;;;;2.88;2.22;;;26.90;99.90;;;;;;5077745;28;37238;-77
2022/08/24 08:39:59;;;;;;;2.45;2.17;;;26.90;99.90;;;;;;5064472;28;39050;-77
2022/08/24 08:42:46;;;;;;;3.97;2.08;;;27.10;99.90;;;;;;5037785;28;39053;-78
2022/08/24 08:45:34;;;;;;;2.42;2.20;;;27.20;99.90;;;;;;5061522;28;37726;-78
2022/08/24 08:48:19;;;;;;;3.00;2.50;;;27.40;99.90;;;;;;5062785;28;37150;-78
2022/08/24 08:50:54;;;;;;;3.03;2.13;;;27.40;99.90;;;;;;5078821;28;47152;-78
2022/08/24 08:53:56;;;;;;;3.78;2.30;;;27.40;99.90;;;;;;5049841;28;38826;-79
2022/08/24 08:56:42;;;;;;;;;;;27.30;99.90;;;;;;5084261;28;37914;-78
2022/08/24 08:59:50;;;;;;;2.45;1.90;;;27.70;99.90;;;;;;5077769;27;38043;-78
2022/08/24 09:02:47;;;;;;;4.13;1.80;;;27.80;99.90;;;;;;5079704;27;38806;-79
2022/08/24 09:05:35;;;;;;;3.45;1.58;;;27.00;99.90;;;;;;5075259;28;39380;-78
2022/08/24 09:08:19;;;;;;;3.60;2.13;;;27.00;99.90;;;;;;5079407;27;39126;-77
2022/08/24 09:11:10;;;;;;;5.90;1.42;;;27.10;99.90;;;;;;5082184;28;37191;-79
2022/08/24 09:13:57;;;;;;;5.28;1.70;;;27.10;99.90;;;;;;5062850;28;47427;-79
2022/08/24 09:16:49;;;;;;;6.90;1.42;;;26.70;99.90;;;;;;5056490;28;39364;-79
2022/08/24 09:19:48;;;;;;;1.85;1.33;;;26.70;99.90;;;;;;5044601;28;36313;-80
2022/08/24 09:22:15;;;;;;;2.83;1.20;;;26.60;99.90;;;;;;5054783;28;39804;-79
2022/08/24 09:24:53;;;;;;;1.92;1.10;;;26.80;99.90;;;;;;5059201;28;39027;-79
2022/08/24 09:27:58;;;;;;;1.40;0.88;;;27.30;99.90;;;;;;5058009;28;38027;-79
2022/08/24 09:30:31;;;;;;;1.10;0.68;;;27.60;99.90;;;;;;5059842;28;37837;-78
2022/08/24 09:33:11;;;;;;;1.50;1.00;;;27.50;99.90;;;;;;5064411;28;38719;-79
2022/08/24 09:35:50;;;;;;;2.67;0.85;;;27.50;99.90;;;;;;5040454;28;46877;-78
2022/08/24 09:38:47;;;;;;;1.10;0.90;;;27.50;99.90;;;;;;5060925;28;38488;-79
2022/08/24 09:41:44;;;;;;;2.00;0.80;;;27.00;99.90;;;;;;5083462;28;38193;-79
2022/08/24 09:44:37;;;;;;;1.05;0.63;;;27.00;99.90;;;;;;5062605;28;36539;-78
2022/08/24 09:47:15;;;;;;;0.50;0.47;;;27.10;99.90;;;;;;5060168;28;41022;-78
2022/08/24 09:50:00;;;;;;;1.10;0.80;;;27.20;99.90;;;;;;5079663;27;38522;-78
2022/08/24 09:52:56;;;;;;;3.60;1.58;;;27.40;99.90;;;;;;5062908;28;40050;-79
2022/08/24 09:55:33;;;;;;;3.22;1.30;;;27.00;99.90;;;;;;5073972;28;37852;-79
2022/08/24 09:58:06;;;;;;;1.25;0.90;;;26.60;99.90;;;;;;5076333;28;38602;-79
2022/08/24 10:00:46;;;;;;;0.93;0.82;;;26.30;99.90;;;;;;5059304;28;47236;-79
2022/08/24 10:03:50;;;;;;;2.83;0.88;;;26.20;99.90;;;;;;5079181;28;38264;-82
2022/08/24 10:06:30;;;;;;;2.35;0.95;;;26.20;99.90;;;;;;5077076;28;37094;-79
2022/08/24 10:09:05;;;;;;;2.55;1.10;;;26.30;99.90;;;;;;5077670;27;39286;-79
2022/08/24 10:12:01;;;;;;;2.25;1.02;;;26.20;99.90;;;;;;5072286;28;51746;-78
2022/08/24 10:14:40;;;;;;;2.10;1.25;;;26.10;99.90;;;;;;5057963;28;47349;-77
2022/08/24 10:17:31;;;;;;;1.33;0.90;;;25.90;99.90;;;;;;5054261;28;37659;-78
2022/08/24 10:20:14;;;;;;;1.30;1.00;;;25.90;99.90;;;;;;5072984;28;38527;-78
2022/08/24 10:23:07;;;;;;;3.00;1.27;;;26.10;99.90;;;;;;5078735;28;49054;-78
2022/08/24 10:25:48;;;;;;;2.08;1.15;;;26.10;99.90;;;;;;5073391;28;48709;-78
2022/08/24 10:28:26;;;;;;;0.98;0.85;;;26.60;99.90;;;;;;5081465;28;37398;-78
2022/08/24 10:31:01;;;;;;;2.42;1.13;;;27.30;99.90;;;;;;5067809;28;39783;-78
2022/08/24 10:33:59;;;;;;;1.85;1.17;;;27.60;99.90;;;;;;5064435;28;48468;-78
2022/08/24 10:36:40;;;;;;;2.40;1.30;;;28.40;99.90;;;;;;5081128;28;39168;-78
2022/08/24 10:39:42;;;;;;;1.98;1.58;;;28.90;99.90;;;;;;5079896;28;37655;-79
2022/08/24 10:45:36;;;;;;;8.82;1.90;;;28.30;99.90;;;;;;5078370;28;40302;-78
2022/08/24 10:48:14;;;;;;;1.67;1.00;;;29.20;99.90;;;;;;5082880;28;40080;-80
2022/08/24 10:50:46;;;;;;;1.27;1.00;;;29.80;99.90;;;;;;5077976;28;38161;-79
2022/08/24 10:53:22;;;;;;;1.13;0.90;;;29.90;99.90;;;;;;5080846;28;39507;-79
2022/08/24 10:56:06;;;;;;;1.05;0.70;;;29.90;99.90;;;;;;5084935;28;39011;-79
2022/08/24 10:58:55;;;;;;;1.25;0.98;;;30.20;99.90;;;;;;5083997;27;48456;-78
2022/08/24 11:01:33;;;;;;;0.85;0.70;;;30.50;99.90;;;;;;5063668;28;37766;-78
2022/08/24 11:04:02;;;;;;;1.70;0.73;;;30.80;99.90;;;;;;5059665;28;38558;-78
2022/08/24 11:06:39;;;;;;;2.65;0.85;;;30.70;99.90;;;;;;5080236;28;47338;-78
2022/08/24 11:09:10;;;;;;;1.95;0.90;;;30.90;99.90;;;;;;5082572;27;37975;-78
2022/08/24 11:11:38;;;;;;;1.15;1.00;;;31.20;99.90;;;;;;5080356;28;35915;-78
2022/08/24 11:14:26;;;;;;;2.08;1.02;;;30.60;99.90;;;;;;5076557;28;39051;-79
2022/08/24 11:16:52;;;;;;;0.93;0.90;;;30.80;99.90;;;;;;5079427;28;39055;-77
2022/08/24 11:19:31;;;;;;;1.13;1.02;;;31.20;99.90;;;;;;5060961;28;38425;-78
2022/08/24 11:22:02;;;;;;;1.95;0.95;;;31.60;99.90;;;;;;5074353;28;38036;-78
2022/08/24 11:24:44;;;;;;;1.00;0.98;;;31.70;99.90;;;;;;5060119;28;46696;-79
2022/08/24 11:27:16;;;;;;;3.13;1.10;;;31.40;99.90;;;;;;5058102;27;38543;-78
2022/08/24 11:29:49;;;;;;;2.10;1.13;;;31.30;99.90;;;;;;5080469;28;37738;-78
2022/08/24 11:32:55;;;;;;;2.05;1.20;;;31.50;99.90;;;;;;5059609;28;37924;-79
2022/08/24 11:35:33;;;;;;;3.97;1.50;;;30.10;99.90;;;;;;4998019;28;39807;-80
2022/08/24 11:38:14;;;;;;;1.55;1.15;;;30.10;99.90;;;;;;5001311;28;39773;-80
2022/08/24 11:40:46;;;;;;;1.07;0.80;;;29.90;99.90;;;;;;5041584;28;48335;-80
2022/08/24 11:43:21;;;;;;;1.42;0.85;;;30.30;99.90;;;;;;5062088;28;36951;-80
2022/08/24 11:46:13;;;;;;;2.10;0.90;;;30.40;99.90;;;;;;5060502;28;39230;-79
2022/08/24 11:48:52;;;;;;;6.90;1.30;;;30.50;99.90;;;;;;5062271;28;46381;-80
2022/08/24 11:51:39;;;;;;;2.47;0.88;;;30.10;99.90;;;;;;5070023;28;39589;-79
2022/08/24 11:54:12;;;;;;;1.40;1.08;;;29.70;99.90;;;;;;5067606;28;36029;-80
2022/08/24 11:57:04;;;;;;;1.92;1.00;;;29.30;99.90;;;;;;5074007;28;37747;-79
2022/08/24 12:00:07;;;;;;;3.95;1.10;;;28.90;99.90;;;;;;5061356;28;47007;-79
2022/08/24 12:02:45;;;;;;;1.27;1.17;;;29.00;99.90;;;;;;5069360;28;47358;-79
2022/08/24 12:05:39;;;;;;;1.63;1.23;;;28.90;99.90;;;;;;5085218;28;36865;-79
2022/08/24 12:08:34;;;;;;;1.45;1.23;;;29.00;99.90;;;;;;5080989;28;39336;-79
2022/08/24 12:11:06;;;;;;;1.20;1.10;;;29.10;99.90;;;;;;5077849;28;37016;-80
2022/08/24 12:13:32;;;;;;;3.83;1.30;;;29.30;99.90;;;;;;5054175;28;47364;-80
2022/08/24 12:16:26;;;;;;;1.00;0.80;;;29.20;99.90;;;;;;5063388;28;37042;-79
2022/08/24 12:19:07;;;;;;;2.85;1.33;;;28.90;99.90;;;;;;5081733;28;48398;-79
2022/08/24 12:21:38;;;;;;;2.47;1.40;;;29.00;99.90;;;;;;5061785;28;47439;-79
2022/08/24 12:24:15;;;;;;;2.10;0.90;;;29.30;99.90;;;;;;5059722;28;38860;-80
2022/08/24 12:26:52;;;;;;;2.83;1.40;;;29.40;99.90;;;;;;5053669;28;37840;-79
2022/08/24 12:30:01;;;;;;;2.28;1.38;;;29.20;99.90;;;;;;5066200;28;38215;-79
2022/08/24 12:32:39;;;;;;;2.22;1.17;;;29.10;99.90;;;;;;5066584;28;38965;-80
2022/08/24 12:35:27;;;;;;;2.20;1.27;;;28.80;99.90;;;;;;5086920;28;38362;-79
2022/08/24 12:38:14;;;;;;;3.92;1.45;;;28.70;99.90;;;;;;5062762;28;38838;-79
2022/08/24 12:40:42;;;;;;;1.70;1.50;;;28.70;99.90;;;;;;5080306;28;47199;-80
2022/08/24 12:43:19;;;;;;;2.92;1.77;;;28.80;99.90;;;;;;5084792;27;38180;-80
2022/08/24 12:45:45;;;;;;;1.73;1.40;;;28.40;99.90;;;;;;5081761;28;39055;-79
2022/08/24 12:48:23;;;;;;;1.13;1.02;;;28.20;99.90;;;;;;5067526;27;36078;-79
2022/08/24 12:51:21;;;;;;;1.27;1.17;;;28.30;99.90;;;;;;5059988;28;39653;-79
2022/08/24 12:54:05;;;;;;;2.30;1.40;;;28.50;99.90;;;;;;5083035;28;48694;-79
2022/08/24 12:56:59;;;;;;;1.75;1.50;;;28.60;99.90;;;;;;5081167;28;49032;-79
2022/08/24 12:59:36;;;;;;;1.10;1.00;;;28.80;99.90;;;;;;5077865;27;38014;-80
2022/08/24 13:02:31;;;;;;;4.05;1.17;;;28.90;99.90;;;;;;5066615;28;40187;-79
2022/08/24 13:05:20;;;;;;;2.08;1.77;;;28.80;99.90;;;;;;5085023;28;38805;-80
2022/08/24 13:07:49;;;;;;;1.67;1.30;;;28.80;99.90;;;;;;5079405;28;49460;-79
2022/08/24 13:10:24;;;;;;;1.20;0.90;;;28.90;99.90;;;;;;5073743;28;35880;-79
2022/08/24 13:13:01;;;;;;;3.25;1.40;;;29.00;99.90;;;;;;5056951;28;37261;-79
2022/08/24 13:15:30;;;;;;;3.38;1.30;;;29.20;99.90;;;;;;5074635;28;48316;-81
2022/08/24 13:18:19;;;;;;;1.15;0.90;;;29.00;99.90;;;;;;5069382;28;37117;-79
2022/08/24 13:20:48;;;;;;;1.17;0.90;;;29.00;99.90;;;;;;5061233;28;47235;-79
2022/08/24 13:23:17;;;;;;;2.83;1.00;;;29.20;99.90;;;;;;5081115;28;39611;-80
2022/08/24 13:25:46;;;;;;;2.00;1.20;;;29.30;99.90;;;;;;5080652;28;39754;-79